Главная страница
METAR-TAF:

METAR-TAF

Аэропорты :

Вадсё, Норвегия

широта: 70-04N, долгота: 029-51E, высота над уровнем моря: 3 м

Текущие метеонаблюдения

Эта сводка был подготовлена 41 минут назад, в 06:20 UTC
Ветер 20 Узел от северо-восточный
Температура 6°C
Влажность 93%
Давление 996 hPa
Видимость 10 км и более
Отдельные облака на высоте 600 фута
Рассеянная облачность на высоте 800 фута
дождь

METAR: ENVD 270620Z 04020KT 9999 RA SCT006 BKN008 06/05 Q0996

Время: 09:01 (07:01 UTC)

Прогноз

Эта сводка был подготовлена 2 часа и 1 минут назад, в 05:00 UTC
Прогноз действительный с 27-го 06 UTC до 27-го 15 UTC
Ветер 18 Узел от северо-восточный
Видимость 10 км и более
Рассеянная облачность на высоте 800 фута
временами
С 27-го 06 UTC до 27-го 15 UTC
Видимость: 2000 м
Рассеянная облачность на высоте 300 фута
дымка

TAF: ENVD 270500Z 2706/2715 05018KT 9999 BKN008 TEMPO 2706/2715 2000 BR BKN003

Метеонаблюдения и прогнозы для более 4000 аэропортов (сводки METAR и TAF).

Имеющиеся станции представлены на карте желтыми и красными точками.

Чтобы увидеть название станции, наведите на нее мышь.

Затем щелкните, чтобы увидеть метеонаблюдения и метеопрогнозы.

Управление картой: чтобы увеличить масштаб, щелкните зеленые кнопки с черным крестиком; чтобы уменьшить масштаб, щелкните зеленую кнопку с тире; для просмотра соседних карт щелкайте зеленые стрелки.


METAR-TAF: